createdAt,value
2022-07-31T00:01:44.175Z,16.14
2022-07-31T00:04:12.141Z,16.10
2022-07-31T00:06:47.206Z,16.07
2022-07-31T00:09:53.703Z,16.06
2022-07-31T00:12:06.333Z,16.03
2022-07-31T00:14:37.082Z,16.27
2022-07-31T00:17:05.778Z,16.30
2022-07-31T00:19:34.042Z,16.27
2022-07-31T00:22:02.414Z,16.19
2022-07-31T00:24:45.725Z,16.23
2022-07-31T00:27:13.903Z,16.61
2022-07-31T00:29:41.855Z,16.65
2022-07-31T00:32:11.608Z,16.61
2022-07-31T00:34:42.872Z,16.55
2022-07-31T00:37:11.210Z,16.43
2022-07-31T00:39:46.851Z,16.30
2022-07-31T00:42:18.436Z,16.22
2022-07-31T00:44:47.906Z,16.16
2022-07-31T00:47:16.995Z,16.06
2022-07-31T00:49:45.919Z,15.98
2022-07-31T00:52:16.338Z,15.93
2022-07-31T00:54:48.939Z,15.85
2022-07-31T00:57:16.900Z,15.80
2022-07-31T00:59:45.758Z,15.74
2022-07-31T01:02:13.712Z,15.70
2022-07-31T01:04:55.527Z,15.57
2022-07-31T01:07:23.779Z,15.56
2022-07-31T01:09:55.500Z,15.55
2022-07-31T01:12:31.445Z,15.51
2022-07-31T01:15:06.185Z,15.51
2022-07-31T01:17:36.514Z,15.45
2022-07-31T01:20:05.871Z,15.48
2022-07-31T01:22:53.384Z,15.48
2022-07-31T01:25:48.632Z,15.40
2022-07-31T01:28:31.075Z,15.43
2022-07-31T01:31:26.220Z,15.49
2022-07-31T01:34:01.215Z,15.50
2022-07-31T01:36:35.187Z,15.48
2022-07-31T01:39:04.116Z,15.47
2022-07-31T01:41:39.150Z,15.40
2022-07-31T01:44:13.982Z,15.36
2022-07-31T01:46:45.888Z,15.28
2022-07-31T01:49:15.888Z,15.21
2022-07-31T01:51:54.894Z,15.07
2022-07-31T01:54:34.109Z,15.03
2022-07-31T01:57:04.551Z,14.94
2022-07-31T01:59:35.441Z,14.85
2022-07-31T02:02:06.022Z,14.83
2022-07-31T02:04:38.553Z,14.77
2022-07-31T02:07:08.321Z,14.70
2022-07-31T02:09:37.915Z,14.64
2022-07-31T02:12:31.938Z,14.58
2022-07-31T02:15:05.671Z,14.52
2022-07-31T02:17:35.478Z,14.49
2022-07-31T02:20:06.949Z,14.47
2022-07-31T02:22:35.520Z,14.46
2022-07-31T02:25:03.971Z,14.41
2022-07-31T02:27:53.826Z,14.38
2022-07-31T02:30:39.045Z,14.35
2022-07-31T02:33:13.670Z,14.31
2022-07-31T02:35:45.967Z,14.27
2022-07-31T02:38:22.500Z,14.23
2022-07-31T02:40:52.847Z,14.19
2022-07-31T02:43:21.830Z,14.19
2022-07-31T02:45:50.076Z,14.14
2022-07-31T02:48:21.392Z,14.11
2022-07-31T02:50:49.815Z,14.02
2022-07-31T02:53:17.886Z,13.93
2022-07-31T02:55:53.027Z,13.85
2022-07-31T02:58:21.445Z,13.82
2022-07-31T03:00:49.457Z,13.82
2022-07-31T03:03:17.922Z,13.84
2022-07-31T03:05:47.364Z,13.96
2022-07-31T03:08:15.301Z,14.10
2022-07-31T03:10:50.323Z,14.28
2022-07-31T03:13:22.581Z,14.46
2022-07-31T03:15:53.167Z,14.64
2022-07-31T03:18:21.874Z,14.80
2022-07-31T03:20:52.913Z,14.98
2022-07-31T03:23:23.663Z,15.13
2022-07-31T03:25:52.340Z,15.26
2022-07-31T03:28:21.191Z,15.40
2022-07-31T03:30:56.112Z,15.52
2022-07-31T03:33:24.856Z,15.63
2022-07-31T03:35:54.548Z,15.79
2022-07-31T03:38:39.222Z,15.89
2022-07-31T03:41:11.404Z,16.01
2022-07-31T03:43:49.097Z,16.11
2022-07-31T03:46:19.879Z,16.21
2022-07-31T03:48:52.487Z,16.32
2022-07-31T03:51:22.810Z,16.41
2022-07-31T03:53:51.770Z,16.50
2022-07-31T03:56:20.723Z,16.60
2022-07-31T03:58:52.490Z,16.69
2022-07-31T04:01:22.132Z,16.72
2022-07-31T04:03:50.309Z,16.79
2022-07-31T04:06:18.360Z,16.79
2022-07-31T04:08:49.022Z,16.83
2022-07-31T04:11:17.962Z,16.81
2022-07-31T04:13:46.161Z,16.80
2022-07-31T04:16:16.060Z,16.77
2022-07-31T04:18:50.730Z,16.83
2022-07-31T04:21:19.137Z,16.84
2022-07-31T04:23:50.100Z,16.85
2022-07-31T04:26:20.057Z,16.90
2022-07-31T04:28:54.515Z,16.93
2022-07-31T04:31:22.558Z,16.90
2022-07-31T04:33:55.971Z,16.98
2022-07-31T04:36:29.630Z,17.05
2022-07-31T04:39:00.198Z,17.12
2022-07-31T04:41:28.840Z,17.13
2022-07-31T04:43:57.935Z,17.19
2022-07-31T04:49:33.244Z,17.39
2022-07-31T04:52:02.325Z,17.53
2022-07-31T04:54:32.252Z,17.64
2022-07-31T04:57:01.766Z,17.67
2022-07-31T04:59:59.434Z,17.79
2022-07-31T05:02:45.025Z,17.84
2022-07-31T05:05:13.018Z,17.96
2022-07-31T05:07:41.280Z,18.17
2022-07-31T05:10:31.500Z,18.33
2022-07-31T05:13:00.241Z,18.46
2022-07-31T05:15:30.090Z,18.54
2022-07-31T05:18:01.006Z,18.62
2022-07-31T05:20:29.126Z,18.65
2022-07-31T05:22:57.247Z,18.70
2022-07-31T05:25:27.106Z,18.80
2022-07-31T05:27:55.409Z,18.77
2022-07-31T05:30:30.597Z,18.73
2022-07-31T05:32:59.925Z,18.81
2022-07-31T05:35:27.950Z,18.93
2022-07-31T05:37:56.071Z,18.97
2022-07-31T05:40:24.651Z,19.03
2022-07-31T05:42:54.075Z,19.10
2022-07-31T05:45:22.195Z,19.08
2022-07-31T05:47:50.523Z,19.06
2022-07-31T05:50:19.250Z,19.13
2022-07-31T05:52:47.280Z,19.22
2022-07-31T05:55:15.254Z,19.29
2022-07-31T05:57:45.541Z,19.41
2022-07-31T06:00:17.629Z,19.47
2022-07-31T06:02:49.349Z,19.54
2022-07-31T06:05:17.492Z,19.65
2022-07-31T06:07:51.240Z,19.86
2022-07-31T06:10:20.315Z,20.06
2022-07-31T06:12:48.695Z,20.20
2022-07-31T06:15:19.227Z,20.32
2022-07-31T06:17:51.289Z,20.47
2022-07-31T06:20:20.516Z,20.47
2022-07-31T06:22:48.563Z,20.49
2022-07-31T06:25:17.156Z,20.56
2022-07-31T06:27:55.024Z,20.69
2022-07-31T06:30:29.164Z,20.76
2022-07-31T06:32:57.206Z,20.73
2022-07-31T06:35:25.414Z,20.82
2022-07-31T06:37:54.206Z,20.96
2022-07-31T06:40:22.683Z,21.10
2022-07-31T06:42:52.807Z,21.22
2022-07-31T06:45:35.677Z,21.35
2022-07-31T06:48:14.303Z,21.50
2022-07-31T06:50:45.921Z,21.67
2022-07-31T06:53:13.999Z,21.92
2022-07-31T06:55:44.418Z,22.23
2022-07-31T06:58:12.990Z,22.49
2022-07-31T07:00:41.434Z,22.69
2022-07-31T07:03:10.739Z,23.01
2022-07-31T07:05:43.842Z,23.38
2022-07-31T07:08:13.238Z,23.65
2022-07-31T07:10:42.939Z,23.59
2022-07-31T07:13:11.216Z,23.60
2022-07-31T07:15:40.986Z,23.80
2022-07-31T07:18:10.878Z,24.01
2022-07-31T07:20:38.977Z,24.01
2022-07-31T07:23:07.088Z,24.02
2022-07-31T07:25:35.161Z,24.02
2022-07-31T07:28:03.137Z,24.09
2022-07-31T07:30:31.119Z,24.13
2022-07-31T07:32:59.874Z,24.12
2022-07-31T07:35:47.426Z,24.16
2022-07-31T07:38:15.733Z,24.14
2022-07-31T07:40:44.680Z,24.11
2022-07-31T07:43:12.766Z,24.09
2022-07-31T07:45:41.975Z,24.12
2022-07-31T07:48:10.444Z,24.17
2022-07-31T07:50:41.996Z,24.09
2022-07-31T07:53:13.092Z,23.94
2022-07-31T07:55:41.165Z,23.93
2022-07-31T07:58:12.012Z,23.95
2022-07-31T08:00:40.948Z,24.21
2022-07-31T08:03:48.753Z,24.34
2022-07-31T08:05:58.458Z,24.35
2022-07-31T08:08:40.208Z,24.30
2022-07-31T08:11:08.452Z,24.38
2022-07-31T08:13:36.745Z,24.37
2022-07-31T08:16:10.756Z,24.45
2022-07-31T08:18:39.100Z,24.54
2022-07-31T08:21:08.530Z,24.54
2022-07-31T08:23:36.755Z,24.58
2022-07-31T08:26:06.648Z,24.59
2022-07-31T08:28:36.095Z,24.67
2022-07-31T08:31:06.251Z,24.76
2022-07-31T08:33:37.594Z,24.82
2022-07-31T08:36:09.358Z,24.99
2022-07-31T08:38:39.583Z,25.18
2022-07-31T08:41:09.040Z,25.30
2022-07-31T08:44:01.751Z,25.37
2022-07-31T08:46:27.051Z,25.39
2022-07-31T08:48:58.548Z,25.36
2022-07-31T08:51:27.795Z,25.39
2022-07-31T08:53:58.447Z,25.50
2022-07-31T08:56:27.064Z,25.66
2022-07-31T08:58:57.462Z,25.83
2022-07-31T09:01:26.015Z,25.99
2022-07-31T09:03:55.394Z,26.03
2022-07-31T09:06:23.515Z,25.94
2022-07-31T09:11:54.168Z,25.72
2022-07-31T09:14:30.215Z,25.64
2022-07-31T09:16:58.616Z,25.71
2022-07-31T09:19:52.049Z,25.81
2022-07-31T09:22:23.814Z,25.99
2022-07-31T09:24:52.272Z,26.03
2022-07-31T09:27:29.021Z,26.14
2022-07-31T09:29:58.229Z,26.18
2022-07-31T09:32:26.363Z,26.33
2022-07-31T09:34:55.471Z,26.47
2022-07-31T09:37:27.457Z,26.66
2022-07-31T09:39:58.214Z,26.81
2022-07-31T09:42:38.155Z,26.93
2022-07-31T09:45:17.957Z,27.07
2022-07-31T09:47:46.798Z,27.13
2022-07-31T09:50:15.636Z,27.00
2022-07-31T09:52:44.401Z,26.99
2022-07-31T09:55:17.050Z,26.99
2022-07-31T09:58:11.807Z,26.98
2022-07-31T10:00:40.681Z,26.90
2022-07-31T10:03:09.492Z,26.66
2022-07-31T10:05:39.448Z,26.85
2022-07-31T10:08:08.027Z,26.93
2022-07-31T10:10:40.357Z,26.84
2022-07-31T10:13:13.363Z,26.68
2022-07-31T10:15:42.032Z,26.60
2022-07-31T10:18:11.425Z,26.57
2022-07-31T10:20:43.311Z,26.49
2022-07-31T10:23:27.449Z,26.60
2022-07-31T10:26:00.641Z,26.66
2022-07-31T10:28:30.880Z,26.51
2022-07-31T10:30:59.733Z,26.42
2022-07-31T10:33:43.693Z,26.31
2022-07-31T10:36:19.322Z,26.21
2022-07-31T10:38:53.170Z,26.12
2022-07-31T10:41:32.147Z,26.28
2022-07-31T10:44:06.825Z,26.24
2022-07-31T10:46:35.312Z,26.16
2022-07-31T10:49:10.649Z,26.05
2022-07-31T10:51:51.118Z,26.38
2022-07-31T10:54:19.239Z,26.54
2022-07-31T10:56:48.388Z,26.43
2022-07-31T10:59:28.803Z,26.41
2022-07-31T11:01:57.030Z,26.20
2022-07-31T11:04:28.747Z,26.14
2022-07-31T11:06:57.676Z,26.10
2022-07-31T11:09:26.956Z,26.13
2022-07-31T11:11:56.056Z,26.16
2022-07-31T11:14:39.103Z,26.15
2022-07-31T11:17:07.551Z,26.27
2022-07-31T11:19:41.430Z,26.34
2022-07-31T11:22:30.872Z,26.37
2022-07-31T11:25:02.408Z,26.41
2022-07-31T11:27:36.838Z,26.49
2022-07-31T11:30:13.513Z,26.54
2022-07-31T11:32:42.081Z,26.56
2022-07-31T11:35:10.522Z,26.69
2022-07-31T11:37:57.116Z,26.85
2022-07-31T11:40:27.698Z,27.01
2022-07-31T11:45:52.278Z,27.25
2022-07-31T11:48:22.465Z,27.23
2022-07-31T11:50:52.765Z,27.37
2022-07-31T11:53:21.366Z,27.45
2022-07-31T11:55:54.047Z,27.55
2022-07-31T11:58:24.045Z,27.46
2022-07-31T12:00:55.453Z,27.49
2022-07-31T12:03:42.209Z,27.56
2022-07-31T12:06:11.547Z,27.57
2022-07-31T12:08:41.004Z,27.66
2022-07-31T12:11:11.368Z,27.74
2022-07-31T12:13:49.257Z,27.73
2022-07-31T12:16:19.931Z,27.73
2022-07-31T12:18:49.652Z,27.75
2022-07-31T12:21:18.835Z,27.81
2022-07-31T12:23:50.097Z,27.90
2022-07-31T12:26:32.539Z,28.03
2022-07-31T12:29:02.050Z,28.28
2022-07-31T12:31:44.552Z,28.50
2022-07-31T12:34:12.782Z,28.46
2022-07-31T12:36:40.851Z,28.42
2022-07-31T12:39:08.939Z,28.26
2022-07-31T12:41:46.197Z,28.20
2022-07-31T12:44:35.144Z,28.16
2022-07-31T12:47:04.854Z,28.19
2022-07-31T12:49:36.441Z,28.23
2022-07-31T12:52:04.721Z,28.18
2022-07-31T12:54:37.821Z,28.18
2022-07-31T12:57:07.616Z,28.20
2022-07-31T12:59:39.328Z,28.17
2022-07-31T13:02:09.435Z,28.17
2022-07-31T13:04:37.624Z,28.18
2022-07-31T13:07:06.393Z,28.14
2022-07-31T13:09:34.873Z,28.17
2022-07-31T13:12:02.980Z,28.16
2022-07-31T13:14:42.742Z,28.12
2022-07-31T13:17:12.286Z,28.08
2022-07-31T13:19:40.251Z,28.01
2022-07-31T13:22:08.332Z,27.93
2022-07-31T13:24:36.395Z,27.88
2022-07-31T13:27:04.715Z,27.75
2022-07-31T13:29:35.047Z,27.64
2022-07-31T13:32:10.809Z,27.45
2022-07-31T13:34:40.255Z,27.27
2022-07-31T13:37:08.287Z,27.08
2022-07-31T13:39:36.307Z,26.96
2022-07-31T13:42:05.595Z,26.90
2022-07-31T13:44:34.436Z,26.80
2022-07-31T13:47:02.685Z,26.83
2022-07-31T13:49:33.401Z,26.75
2022-07-31T13:52:03.238Z,26.71
2022-07-31T13:54:31.573Z,26.72
2022-07-31T13:56:59.611Z,26.59
2022-07-31T13:59:33.171Z,26.40
2022-07-31T14:02:04.461Z,26.41
2022-07-31T14:04:38.441Z,26.48
2022-07-31T14:07:09.245Z,26.60
2022-07-31T14:09:37.919Z,26.73
2022-07-31T14:12:08.159Z,26.82
2022-07-31T14:14:38.084Z,26.94
2022-07-31T14:17:06.434Z,26.98
2022-07-31T14:19:40.611Z,27.03
2022-07-31T14:22:14.652Z,27.00
2022-07-31T14:24:45.639Z,26.91
2022-07-31T14:27:18.833Z,26.82
2022-07-31T14:29:46.958Z,26.76
2022-07-31T14:32:35.021Z,26.68
2022-07-31T14:35:07.786Z,26.70
2022-07-31T14:37:38.327Z,26.59
2022-07-31T14:40:07.610Z,26.57
2022-07-31T14:42:35.909Z,26.48
2022-07-31T14:45:04.114Z,26.40
2022-07-31T14:47:39.199Z,26.34
2022-07-31T14:50:12.098Z,26.21
2022-07-31T14:52:43.968Z,26.16
2022-07-31T14:55:11.931Z,26.12
2022-07-31T14:57:40.251Z,26.19
2022-07-31T15:00:13.526Z,26.19
2022-07-31T15:02:42.250Z,26.29
2022-07-31T15:06:38.712Z,26.39
2022-07-31T15:08:02.657Z,26.53
2022-07-31T15:10:32.525Z,26.63
2022-07-31T15:13:00.642Z,26.68
2022-07-31T15:15:29.072Z,26.78
2022-07-31T15:17:59.948Z,26.87
2022-07-31T15:20:32.824Z,26.93
2022-07-31T15:23:03.115Z,26.93
2022-07-31T15:25:31.503Z,27.03
2022-07-31T15:27:59.622Z,27.10
2022-07-31T15:30:27.768Z,27.16
2022-07-31T15:32:55.707Z,27.22
2022-07-31T15:35:23.842Z,27.41
2022-07-31T15:37:51.905Z,27.88
2022-07-31T15:40:21.321Z,28.81
2022-07-31T15:42:50.015Z,29.94
2022-07-31T15:45:19.853Z,30.82
2022-07-31T15:47:50.662Z,31.64
2022-07-31T15:50:20.890Z,32.35
2022-07-31T15:52:49.509Z,32.95
2022-07-31T15:55:18.096Z,33.25
2022-07-31T15:57:59.379Z,33.44
2022-07-31T16:00:28.932Z,33.87
2022-07-31T16:02:56.912Z,34.04
2022-07-31T16:05:36.512Z,34.23
2022-07-31T16:08:29.177Z,34.23
2022-07-31T16:10:56.416Z,34.30
2022-07-31T16:13:27.538Z,34.47
2022-07-31T16:15:55.566Z,34.74
2022-07-31T16:18:23.638Z,34.81
2022-07-31T16:20:51.926Z,34.75
2022-07-31T16:23:19.996Z,34.91
2022-07-31T16:25:50.885Z,35.17
2022-07-31T16:28:18.905Z,35.17
2022-07-31T16:30:48.926Z,34.87
2022-07-31T16:33:16.986Z,34.67
2022-07-31T16:35:44.963Z,34.56
2022-07-31T16:38:12.992Z,33.95
2022-07-31T16:40:41.231Z,34.39
2022-07-31T16:43:47.457Z,34.65
2022-07-31T16:46:05.056Z,33.63
2022-07-31T16:48:33.098Z,32.70
2022-07-31T16:51:01.525Z,31.78
2022-07-31T16:54:14.562Z,31.12
2022-07-31T16:56:19.889Z,30.63
2022-07-31T16:58:52.668Z,30.32
2022-07-31T17:01:58.396Z,30.42
2022-07-31T17:04:13.992Z,30.55
2022-07-31T17:06:57.287Z,30.71
2022-07-31T17:09:25.856Z,31.27
2022-07-31T17:11:57.522Z,31.35
2022-07-31T17:14:30.911Z,31.35
2022-07-31T17:17:00.419Z,31.21
2022-07-31T17:19:41.570Z,30.81
2022-07-31T17:22:17.798Z,30.42
2022-07-31T17:24:50.817Z,30.61
2022-07-31T17:27:20.766Z,30.07
2022-07-31T17:29:49.410Z,29.58
2022-07-31T17:32:19.032Z,28.96
2022-07-31T17:34:49.568Z,28.40
2022-07-31T17:37:18.398Z,27.88
2022-07-31T17:39:46.615Z,27.38
2022-07-31T17:42:14.751Z,26.93
2022-07-31T17:44:48.946Z,26.51
2022-07-31T17:47:22.656Z,26.24
2022-07-31T17:49:50.695Z,26.03
2022-07-31T17:52:20.909Z,25.87
2022-07-31T17:54:51.039Z,25.75
2022-07-31T17:57:19.743Z,25.66
2022-07-31T17:59:50.611Z,25.63
2022-07-31T18:02:18.556Z,25.84
2022-07-31T18:04:48.117Z,26.21
2022-07-31T18:07:18.346Z,26.47
2022-07-31T18:09:48.241Z,26.63
2022-07-31T18:12:16.681Z,26.95
2022-07-31T18:14:48.404Z,27.32
2022-07-31T18:17:16.426Z,27.71
2022-07-31T18:20:01.581Z,27.99
2022-07-31T18:22:35.032Z,28.15
2022-07-31T18:25:19.186Z,28.13
2022-07-31T18:27:47.684Z,27.84
2022-07-31T18:30:15.793Z,27.57
2022-07-31T18:32:44.298Z,27.44
2022-07-31T18:35:13.630Z,27.11
2022-07-31T18:37:41.885Z,26.73
2022-07-31T18:40:10.750Z,26.41
2022-07-31T18:42:39.291Z,26.13
2022-07-31T18:45:08.279Z,25.87
2022-07-31T18:47:37.231Z,25.72
2022-07-31T18:51:01.943Z,25.67
2022-07-31T18:52:55.124Z,25.56
2022-07-31T18:55:23.585Z,25.38
2022-07-31T18:57:52.201Z,25.19
2022-07-31T19:00:20.129Z,24.99
2022-07-31T19:02:48.572Z,24.79
2022-07-31T19:05:21.878Z,24.59
2022-07-31T19:07:51.828Z,24.45
2022-07-31T19:10:29.114Z,24.27
2022-07-31T19:12:58.750Z,24.11
2022-07-31T19:15:26.722Z,23.99
2022-07-31T19:17:58.452Z,23.92
2022-07-31T19:20:41.244Z,23.83
2022-07-31T19:23:16.797Z,23.82
2022-07-31T19:26:04.302Z,23.78
2022-07-31T19:28:33.050Z,23.74
2022-07-31T19:31:01.454Z,23.67
2022-07-31T19:33:29.805Z,23.57
2022-07-31T19:36:01.843Z,23.46
2022-07-31T19:38:32.194Z,23.39
2022-07-31T19:41:01.950Z,23.35
2022-07-31T19:43:30.341Z,23.35
2022-07-31T19:46:10.127Z,23.34
2022-07-31T19:48:41.361Z,23.27
2022-07-31T19:51:09.758Z,23.30
2022-07-31T19:53:38.177Z,23.29
2022-07-31T19:56:08.043Z,23.30
2022-07-31T19:58:37.363Z,23.30
2022-07-31T20:01:06.046Z,23.30
2022-07-31T20:03:34.276Z,23.28
2022-07-31T20:06:02.946Z,23.32
2022-07-31T20:08:34.135Z,23.32
2022-07-31T20:11:05.947Z,23.33
2022-07-31T20:13:37.868Z,23.35
2022-07-31T20:16:06.964Z,23.35
2022-07-31T20:18:35.136Z,23.35
2022-07-31T20:21:07.030Z,23.34
2022-07-31T20:23:38.441Z,23.34
2022-07-31T20:26:07.434Z,23.37
2022-07-31T20:28:38.336Z,23.35
2022-07-31T20:31:06.459Z,23.33
2022-07-31T20:33:56.887Z,23.27
2022-07-31T20:36:26.702Z,23.25
2022-07-31T20:38:55.244Z,23.20
2022-07-31T20:41:23.559Z,23.22
2022-07-31T20:43:53.382Z,23.20
2022-07-31T20:46:21.723Z,23.19
2022-07-31T20:48:52.811Z,23.19
2022-07-31T20:51:24.216Z,23.13
2022-07-31T20:53:52.964Z,22.98
2022-07-31T20:56:21.482Z,22.90
2022-07-31T20:58:51.641Z,22.90
2022-07-31T21:01:22.119Z,22.90
2022-07-31T21:03:51.294Z,22.86
2022-07-31T21:06:21.234Z,22.82
2022-07-31T21:08:49.480Z,22.78
2022-07-31T21:11:17.890Z,22.64
2022-07-31T21:13:55.088Z,22.56
2022-07-31T21:16:24.507Z,22.60
2022-07-31T21:18:53.855Z,22.60
2022-07-31T21:21:22.138Z,22.61
2022-07-31T21:23:50.545Z,22.56
2022-07-31T21:26:18.924Z,22.52
2022-07-31T21:28:51.022Z,22.45
2022-07-31T21:31:19.551Z,22.47
2022-07-31T21:33:49.560Z,22.33
2022-07-31T21:36:18.083Z,22.39
2022-07-31T21:38:49.784Z,22.43
2022-07-31T21:41:18.479Z,22.45
2022-07-31T21:43:58.703Z,22.48
2022-07-31T21:46:32.074Z,22.54
2022-07-31T21:49:03.144Z,22.57
2022-07-31T21:51:33.354Z,22.51
2022-07-31T21:54:01.739Z,22.53
2022-07-31T21:56:29.790Z,22.50
2022-07-31T21:58:58.375Z,22.47
2022-07-31T22:01:26.347Z,22.42
2022-07-31T22:03:54.419Z,22.43
2022-07-31T22:06:41.241Z,22.26
2022-07-31T22:09:09.919Z,22.21
2022-07-31T22:11:38.115Z,21.99
2022-07-31T22:14:09.237Z,21.95
2022-07-31T22:16:38.534Z,21.91
2022-07-31T22:19:06.874Z,21.85
2022-07-31T22:21:36.888Z,21.84
2022-07-31T22:24:05.636Z,21.81
2022-07-31T22:26:33.911Z,21.83
2022-07-31T22:29:02.909Z,21.82
2022-07-31T22:31:31.179Z,21.78
2022-07-31T22:33:59.554Z,21.70
2022-07-31T22:36:28.747Z,21.66
2022-07-31T22:38:58.413Z,21.65
2022-07-31T22:41:26.487Z,21.63
2022-07-31T22:44:14.621Z,21.72
2022-07-31T22:46:43.549Z,21.78
2022-07-31T22:49:12.038Z,21.73
2022-07-31T22:51:43.665Z,21.75
2022-07-31T22:54:15.648Z,21.67
2022-07-31T22:56:43.698Z,21.58
2022-07-31T22:59:11.957Z,21.52
2022-07-31T23:01:39.952Z,21.46
2022-07-31T23:04:07.914Z,21.33
2022-07-31T23:06:36.260Z,21.24
2022-07-31T23:09:04.582Z,21.25
2022-07-31T23:11:34.187Z,21.22
2022-07-31T23:14:03.600Z,21.24
2022-07-31T23:16:36.844Z,21.35
2022-07-31T23:19:05.013Z,21.50
2022-07-31T23:21:33.302Z,21.46
2022-07-31T23:24:01.455Z,21.45
2022-07-31T23:26:29.451Z,21.33
2022-07-31T23:28:58.754Z,21.20
2022-07-31T23:31:27.219Z,21.14
2022-07-31T23:33:55.539Z,21.21
2022-07-31T23:36:23.814Z,21.25
2022-07-31T23:38:52.202Z,21.11
2022-07-31T23:41:41.217Z,21.04
2022-07-31T23:44:10.766Z,20.80
2022-07-31T23:46:40.301Z,20.79
2022-07-31T23:49:09.215Z,20.74
2022-07-31T23:51:38.875Z,20.81
2022-07-31T23:54:07.776Z,20.96
2022-07-31T23:56:35.763Z,21.10
2022-07-31T23:59:03.766Z,21.17
